createdAt,value
2023-04-08T00:00:12.208Z,88.10
2023-04-08T00:02:39.271Z,87.60
2023-04-08T00:05:06.850Z,88.10
2023-04-08T00:07:33.701Z,87.40
2023-04-08T00:10:00.698Z,88.00
2023-04-08T00:12:27.390Z,87.60
2023-04-08T00:14:54.212Z,87.60
2023-04-08T00:17:21.154Z,87.30
2023-04-08T00:19:47.850Z,87.80
2023-04-08T00:22:14.599Z,88.00
2023-04-08T00:24:41.342Z,87.60
2023-04-08T00:27:08.050Z,88.00
2023-04-08T00:29:35.000Z,87.50
2023-04-08T00:32:01.719Z,87.30
2023-04-08T00:34:28.439Z,87.00
2023-04-08T00:36:55.256Z,86.60
2023-04-08T00:39:22.066Z,87.00
2023-04-08T00:41:48.758Z,87.50
2023-04-08T00:44:15.540Z,86.80
2023-04-08T00:46:42.485Z,86.70
2023-04-08T00:49:09.927Z,87.20
2023-04-08T00:51:36.889Z,87.60
2023-04-08T00:54:07.311Z,87.40
2023-04-08T00:56:34.338Z,87.70
2023-04-08T00:59:01.775Z,87.80
2023-04-08T01:01:34.868Z,87.90
2023-04-08T01:04:13.038Z,87.70
2023-04-08T01:06:42.834Z,87.90
2023-04-08T01:09:10.646Z,87.70
2023-04-08T01:11:38.844Z,88.10
2023-04-08T01:14:07.430Z,87.80
2023-04-08T01:16:35.142Z,87.40
2023-04-08T01:19:01.995Z,87.80
2023-04-08T01:21:29.035Z,87.70
2023-04-08T01:24:09.380Z,87.80
2023-04-08T01:26:36.221Z,88.00
2023-04-08T01:29:03.588Z,87.90
2023-04-08T01:31:32.203Z,87.70
2023-04-08T01:34:00.119Z,87.50
2023-04-08T01:36:26.933Z,87.80
2023-04-08T01:38:53.814Z,86.90
2023-04-08T01:41:21.457Z,87.80
2023-04-08T01:43:48.714Z,87.60
2023-04-08T01:46:15.862Z,87.90
2023-04-08T01:48:42.983Z,87.80
2023-04-08T01:51:09.683Z,87.20
2023-04-08T01:53:36.554Z,87.80
2023-04-08T01:56:07.732Z,87.10
2023-04-08T01:58:42.232Z,87.90
2023-04-08T02:01:13.973Z,87.50
2023-04-08T02:03:42.870Z,88.30
2023-04-08T02:06:09.708Z,88.20
2023-04-08T02:08:36.844Z,87.60
2023-04-08T02:11:04.079Z,87.90
2023-04-08T02:13:31.656Z,88.70
2023-04-08T02:16:04.353Z,88.30
2023-04-08T02:18:32.034Z,88.60
2023-04-08T02:21:06.053Z,88.50
2023-04-08T02:23:34.686Z,89.10
2023-04-08T02:26:02.789Z,88.70
2023-04-08T02:28:30.851Z,88.40
2023-04-08T02:30:58.133Z,87.90
2023-04-08T02:33:25.041Z,87.60
2023-04-08T02:35:54.988Z,87.30
2023-04-08T02:38:22.061Z,87.30
2023-04-08T02:40:50.004Z,87.10
2023-04-08T02:43:16.936Z,87.80
2023-04-08T02:45:44.260Z,87.90
2023-04-08T02:48:11.007Z,88.00
2023-04-08T02:50:37.820Z,88.60
2023-04-08T02:53:04.525Z,88.40
2023-04-08T02:55:31.471Z,88.90
2023-04-08T02:57:58.305Z,88.70
2023-04-08T03:00:25.068Z,88.80
2023-04-08T03:02:52.001Z,89.10
2023-04-08T03:05:19.025Z,88.90
2023-04-08T03:07:45.776Z,89.30
2023-04-08T03:10:12.582Z,89.20
2023-04-08T03:12:39.335Z,89.20
2023-04-08T03:15:06.328Z,89.30
2023-04-08T03:17:34.733Z,88.50
2023-04-08T03:20:02.177Z,88.20
2023-04-08T03:22:28.924Z,88.20
2023-04-08T03:24:55.699Z,88.00
2023-04-08T03:27:22.615Z,88.20
2023-04-08T03:29:49.439Z,87.90
2023-04-08T03:32:16.425Z,88.20
2023-04-08T03:34:43.179Z,88.30
2023-04-08T03:37:10.380Z,88.20
2023-04-08T03:39:37.118Z,87.70
2023-04-08T03:42:04.082Z,87.50
2023-04-08T03:44:31.076Z,87.80
2023-04-08T03:46:57.876Z,87.70
2023-04-08T03:49:24.748Z,87.80
2023-04-08T03:51:51.470Z,87.70
2023-04-08T03:54:18.232Z,88.30
2023-04-08T03:56:44.979Z,88.20
2023-04-08T03:59:11.933Z,88.40
2023-04-08T04:01:39.630Z,88.40
2023-04-08T04:04:08.280Z,88.50
2023-04-08T04:06:35.302Z,88.90
2023-04-08T04:09:02.032Z,89.10
2023-04-08T04:11:28.977Z,89.40
2023-04-08T04:13:55.857Z,89.10
2023-04-08T04:16:22.661Z,89.00
2023-04-08T04:18:49.785Z,88.60
2023-04-08T04:21:16.899Z,87.90
2023-04-08T04:23:43.738Z,87.60
2023-04-08T04:26:11.187Z,87.80
2023-04-08T04:28:38.266Z,88.40
2023-04-08T04:31:05.151Z,88.80
2023-04-08T04:33:32.011Z,88.80
2023-04-08T04:35:58.766Z,88.90
2023-04-08T04:38:25.712Z,88.70
2023-04-08T04:40:52.688Z,88.60
2023-04-08T04:43:19.421Z,88.30
2023-04-08T04:45:46.404Z,88.20
2023-04-08T04:48:13.184Z,87.90
2023-04-08T04:50:39.942Z,87.90
2023-04-08T04:53:06.650Z,87.60
2023-04-08T04:55:33.519Z,88.20
2023-04-08T04:58:00.384Z,88.70
2023-04-08T05:00:27.142Z,88.90
2023-04-08T05:02:54.140Z,89.00
2023-04-08T05:05:21.149Z,89.60
2023-04-08T05:07:47.969Z,89.50
2023-04-08T05:10:14.712Z,89.40
2023-04-08T05:12:41.455Z,89.40
2023-04-08T05:15:08.285Z,89.80
2023-04-08T05:17:35.188Z,89.70
2023-04-08T05:20:02.104Z,89.40
2023-04-08T05:22:28.967Z,89.20
2023-04-08T05:24:56.134Z,88.90
2023-04-08T05:27:22.942Z,88.60
2023-04-08T05:29:49.641Z,88.70
2023-04-08T05:32:17.208Z,88.50
2023-04-08T05:34:44.218Z,88.70
2023-04-08T05:37:11.133Z,88.60
2023-04-08T05:39:37.947Z,88.80
2023-04-08T05:42:04.637Z,88.90
2023-04-08T05:44:31.364Z,89.20
2023-04-08T05:46:58.563Z,89.10
2023-04-08T05:49:25.367Z,90.20
2023-04-08T05:51:52.163Z,90.10
2023-04-08T05:54:19.085Z,90.00
2023-04-08T05:56:46.612Z,89.70
2023-04-08T05:59:13.342Z,89.00
2023-04-08T06:01:40.242Z,89.00
2023-04-08T06:04:07.195Z,88.90
2023-04-08T06:06:34.115Z,88.30
2023-04-08T06:09:00.891Z,88.70
2023-04-08T06:11:27.729Z,88.60
2023-04-08T06:13:54.469Z,89.00
2023-04-08T06:16:21.513Z,88.30
2023-04-08T06:18:48.617Z,89.20
2023-04-08T06:21:16.677Z,88.90
2023-04-08T06:23:43.435Z,88.30
2023-04-08T06:26:10.294Z,88.20
2023-04-08T06:28:37.003Z,89.00
2023-04-08T06:31:03.909Z,88.30
2023-04-08T06:33:30.756Z,88.20
2023-04-08T06:36:07.381Z,88.80
2023-04-08T06:38:34.295Z,88.20
2023-04-08T06:41:04.903Z,89.10
2023-04-08T06:43:31.874Z,88.80
2023-04-08T06:45:58.945Z,88.60
2023-04-08T06:48:30.884Z,89.80
2023-04-08T06:50:58.312Z,90.10
2023-04-08T06:53:25.645Z,90.00
2023-04-08T06:55:52.882Z,90.20
2023-04-08T06:58:19.957Z,90.30
2023-04-08T07:00:47.414Z,90.20
2023-04-08T07:03:14.348Z,90.40
2023-04-08T07:05:42.280Z,90.40
2023-04-08T07:08:09.281Z,90.60
2023-04-08T07:10:36.235Z,90.20
2023-04-08T07:13:03.337Z,90.30
2023-04-08T07:15:30.318Z,90.60
2023-04-08T07:17:57.292Z,90.50
2023-04-08T07:20:24.147Z,90.60
2023-04-08T07:22:51.032Z,90.30
2023-04-08T07:25:17.839Z,90.80
2023-04-08T07:27:44.673Z,90.70
2023-04-08T07:30:11.820Z,90.80
2023-04-08T07:32:38.619Z,91.10
2023-04-08T07:35:05.674Z,91.10
2023-04-08T07:37:32.549Z,91.30
2023-04-08T07:39:59.240Z,91.30
2023-04-08T07:42:26.107Z,91.60
2023-04-08T07:44:52.910Z,91.30
2023-04-08T07:47:19.609Z,91.60
2023-04-08T07:49:47.029Z,91.30
2023-04-08T07:52:13.779Z,91.20
2023-04-08T07:54:40.508Z,91.30
2023-04-08T07:57:07.351Z,91.50
2023-04-08T07:59:34.269Z,91.50
2023-04-08T08:02:01.092Z,91.60
2023-04-08T08:04:28.076Z,91.50
2023-04-08T08:06:55.252Z,91.40
2023-04-08T08:09:22.008Z,91.60
2023-04-08T08:11:48.762Z,91.50
2023-04-08T08:14:15.676Z,91.70
2023-04-08T08:16:42.645Z,91.60
2023-04-08T08:19:09.513Z,91.70
2023-04-08T08:21:37.356Z,91.60
2023-04-08T08:24:04.206Z,91.50
2023-04-08T08:26:31.039Z,91.60
2023-04-08T08:28:57.785Z,91.70
2023-04-08T08:31:24.530Z,92.00
2023-04-08T08:33:51.584Z,91.90
2023-04-08T08:36:18.732Z,91.70
2023-04-08T08:38:45.557Z,92.20
2023-04-08T08:41:12.338Z,91.90
2023-04-08T08:43:39.095Z,91.80
2023-04-08T08:46:08.750Z,91.60
2023-04-08T08:48:38.805Z,91.60
2023-04-08T08:51:09.703Z,91.50
2023-04-08T08:53:36.694Z,91.50
2023-04-08T08:58:34.847Z,91.40
2023-04-08T09:01:01.619Z,91.30
2023-04-08T09:03:29.124Z,91.20
2023-04-08T09:06:00.756Z,91.50
2023-04-08T09:08:27.486Z,91.00
2023-04-08T09:10:55.469Z,91.00
2023-04-08T09:13:23.521Z,91.10
2023-04-08T09:16:18.083Z,91.20
2023-04-08T09:18:47.253Z,90.90
2023-04-08T09:21:17.189Z,90.50
2023-04-08T09:23:43.907Z,90.40
2023-04-08T09:26:11.784Z,90.70
2023-04-08T09:28:39.555Z,90.00
2023-04-08T09:31:25.694Z,90.60
2023-04-08T09:33:59.221Z,90.80
2023-04-08T09:36:29.397Z,90.30
2023-04-08T09:38:56.748Z,90.80
2023-04-08T09:41:26.557Z,90.10
2023-04-08T09:43:54.776Z,90.50
2023-04-08T09:46:26.737Z,90.40
2023-04-08T09:49:05.738Z,90.60
2023-04-08T09:51:36.853Z,90.30
2023-04-08T09:54:06.395Z,90.20
2023-04-08T09:56:41.525Z,90.10
2023-04-08T09:59:13.913Z,90.40
2023-04-08T10:01:47.116Z,90.20
2023-04-08T10:04:17.626Z,89.80
2023-04-08T10:06:44.729Z,90.20
2023-04-08T10:09:11.587Z,90.10
2023-04-08T10:11:38.535Z,90.10
2023-04-08T10:14:05.219Z,90.10
2023-04-08T10:16:32.191Z,90.20
2023-04-08T10:18:59.830Z,90.20
2023-04-08T10:21:37.332Z,89.80
2023-04-08T10:24:08.223Z,90.30
2023-04-08T10:26:36.386Z,90.00
2023-04-08T10:29:32.750Z,90.10
2023-04-08T10:31:59.918Z,90.10
2023-04-08T10:34:27.248Z,90.00
2023-04-08T10:36:55.844Z,89.90
2023-04-08T10:39:22.952Z,89.40
2023-04-08T10:41:50.601Z,90.10
2023-04-08T10:44:21.404Z,89.80
2023-04-08T10:46:48.967Z,90.40
2023-04-08T10:49:16.620Z,90.00
2023-04-08T10:51:44.562Z,90.00
2023-04-08T10:54:12.938Z,89.50
2023-04-08T10:56:47.724Z,89.50
2023-04-08T10:59:18.079Z,89.20
2023-04-08T11:01:46.424Z,85.10
2023-04-08T11:04:16.897Z,84.50
2023-04-08T11:06:44.484Z,83.50
2023-04-08T11:09:11.438Z,88.10
2023-04-08T11:11:38.522Z,88.30
2023-04-08T11:14:06.056Z,88.50
2023-04-08T11:16:33.756Z,88.50
2023-04-08T11:19:02.904Z,87.90
2023-04-08T11:21:30.418Z,88.00
2023-04-08T11:23:57.328Z,89.20
2023-04-08T11:26:25.741Z,88.90
2023-04-08T11:28:52.738Z,88.70
2023-04-08T11:31:24.316Z,88.40
2023-04-08T11:33:53.762Z,88.60
2023-04-08T11:36:21.902Z,87.50
2023-04-08T11:38:49.027Z,84.20
2023-04-08T11:41:16.424Z,88.00
2023-04-08T11:43:56.028Z,87.30
2023-04-08T11:46:23.230Z,88.20
2023-04-08T11:49:01.924Z,87.80
2023-04-08T11:51:29.151Z,88.60
2023-04-08T11:53:56.781Z,88.20
2023-04-08T11:56:24.786Z,88.10
2023-04-08T11:58:52.177Z,89.00
2023-04-08T12:01:19.434Z,88.50
2023-04-08T12:03:59.477Z,88.10
2023-04-08T12:06:27.384Z,88.30
2023-04-08T12:08:54.755Z,88.90
2023-04-08T12:11:21.736Z,88.40
2023-04-08T12:13:50.076Z,88.80
2023-04-08T12:16:17.523Z,88.50
2023-04-08T12:18:44.718Z,88.00
2023-04-08T12:21:11.612Z,88.40
2023-04-08T12:23:38.471Z,87.80
2023-04-08T12:26:05.437Z,89.10
2023-04-08T12:28:32.328Z,88.60
2023-04-08T12:30:59.229Z,88.00
2023-04-08T12:33:25.988Z,89.00
2023-04-08T12:35:53.169Z,88.50
2023-04-08T12:38:20.079Z,87.80
2023-04-08T12:40:48.569Z,89.00
2023-04-08T12:43:16.645Z,89.10
2023-04-08T12:45:43.611Z,88.20
2023-04-08T12:48:10.650Z,88.20
2023-04-08T12:50:37.549Z,88.30
2023-04-08T12:53:04.425Z,88.10
2023-04-08T12:55:31.415Z,89.00
2023-04-08T12:57:58.456Z,88.70
2023-04-08T13:00:26.306Z,87.60
2023-04-08T13:02:53.399Z,88.70
2023-04-08T13:05:29.450Z,89.10
2023-04-08T13:08:06.989Z,88.10
2023-04-08T13:10:33.803Z,88.00
2023-04-08T13:13:00.819Z,87.10
2023-04-08T13:15:31.861Z,88.00
2023-04-08T13:17:58.588Z,87.00
2023-04-08T13:20:26.282Z,88.00
2023-04-08T13:22:53.268Z,88.00
2023-04-08T13:25:20.024Z,89.00
2023-04-08T13:27:47.056Z,88.20
2023-04-08T13:30:14.008Z,88.70
2023-04-08T13:32:40.791Z,87.60
2023-04-08T13:35:07.909Z,88.00
2023-04-08T13:37:34.847Z,87.80
2023-04-08T13:40:01.662Z,88.40
2023-04-08T13:42:28.416Z,88.00
2023-04-08T13:44:55.242Z,88.00
2023-04-08T13:47:22.057Z,88.10
2023-04-08T13:49:48.782Z,88.40
2023-04-08T13:52:15.795Z,88.50
2023-04-08T13:54:42.470Z,87.40
2023-04-08T13:57:09.182Z,85.60
2023-04-08T13:59:36.085Z,86.50
2023-04-08T14:02:03.003Z,87.40
2023-04-08T14:04:29.888Z,88.00
2023-04-08T14:06:58.187Z,82.50
2023-04-08T14:09:24.942Z,86.60
2023-04-08T14:11:51.626Z,87.00
2023-04-08T14:14:18.466Z,86.90
2023-04-08T14:16:45.515Z,87.60
2023-04-08T14:19:12.655Z,86.00
2023-04-08T14:21:39.486Z,85.60
2023-04-08T14:24:06.615Z,81.60
2023-04-08T14:26:35.969Z,81.50
2023-04-08T14:29:03.934Z,80.80
2023-04-08T14:31:31.558Z,79.60
2023-04-08T14:33:58.844Z,79.30
2023-04-08T14:36:26.382Z,79.10
2023-04-08T14:38:53.534Z,79.70
2023-04-08T14:41:21.398Z,84.20
2023-04-08T14:43:48.563Z,84.80
2023-04-08T14:46:15.621Z,81.50
2023-04-08T14:48:42.346Z,86.60
2023-04-08T14:51:09.186Z,80.70
2023-04-08T14:53:36.445Z,79.30
2023-04-08T14:56:04.212Z,82.80
2023-04-08T14:58:31.304Z,80.70
2023-04-08T15:00:58.017Z,81.20
2023-04-08T15:03:24.956Z,85.60
2023-04-08T15:05:51.919Z,86.00
2023-04-08T15:08:18.911Z,79.60
2023-04-08T15:10:45.685Z,80.60
2023-04-08T15:13:12.552Z,80.10
2023-04-08T15:15:39.537Z,80.30
2023-04-08T15:18:06.325Z,80.70
2023-04-08T15:20:33.264Z,79.60
2023-04-08T15:23:00.044Z,78.70
2023-04-08T15:25:26.759Z,83.50
2023-04-08T15:27:53.678Z,78.80
2023-04-08T15:30:25.117Z,78.50
2023-04-08T15:32:52.230Z,84.10
2023-04-08T15:35:19.469Z,84.00
2023-04-08T15:37:46.191Z,85.20
2023-04-08T15:40:13.011Z,81.50
2023-04-08T15:42:39.816Z,79.10
2023-04-08T15:45:06.815Z,76.70
2023-04-08T15:47:35.281Z,77.50
2023-04-08T15:50:02.365Z,76.70
2023-04-08T15:52:29.110Z,77.90
2023-04-08T15:54:55.910Z,82.60
2023-04-08T15:57:26.626Z,78.70
2023-04-08T15:59:53.631Z,77.90
2023-04-08T16:02:20.591Z,77.80
2023-04-08T16:04:47.460Z,82.90
2023-04-08T16:07:15.409Z,77.40
2023-04-08T16:09:42.247Z,75.50
2023-04-08T16:12:09.602Z,76.20
2023-04-08T16:14:36.334Z,78.80
2023-04-08T16:17:03.036Z,76.90
2023-04-08T16:19:29.813Z,77.10
2023-04-08T16:21:56.596Z,76.20
2023-04-08T16:24:23.293Z,73.90
2023-04-08T16:26:50.098Z,73.70
2023-04-08T16:29:16.852Z,74.50
2023-04-08T16:31:43.651Z,78.70
2023-04-08T16:34:11.384Z,75.40
2023-04-08T16:36:38.259Z,73.20
2023-04-08T16:39:04.924Z,72.70
2023-04-08T16:41:31.760Z,75.30
2023-04-08T16:43:58.474Z,74.50
2023-04-08T16:46:25.394Z,74.70
2023-04-08T16:48:52.199Z,75.40
2023-04-08T16:51:18.950Z,74.00
2023-04-08T16:53:45.659Z,73.20
2023-04-08T16:56:16.286Z,72.80
2023-04-08T16:58:43.765Z,78.10
2023-04-08T17:01:11.154Z,72.60
2023-04-08T17:03:38.350Z,73.90
2023-04-08T17:06:05.899Z,73.50
2023-04-08T17:08:32.626Z,72.10
2023-04-08T17:11:06.770Z,73.00
2023-04-08T17:13:33.635Z,72.50
2023-04-08T17:16:00.580Z,72.00
2023-04-08T17:18:27.503Z,74.90
2023-04-08T17:20:54.272Z,74.40
2023-04-08T17:23:21.028Z,75.20
2023-04-08T17:25:47.916Z,76.50
2023-04-08T17:28:14.816Z,73.50
2023-04-08T17:30:41.543Z,74.90
2023-04-08T17:33:08.345Z,73.50
2023-04-08T17:35:35.982Z,79.90
2023-04-08T17:38:03.257Z,82.60
2023-04-08T17:40:30.250Z,81.50
2023-04-08T17:42:57.401Z,80.50
2023-04-08T17:45:24.478Z,82.70
2023-04-08T17:47:52.255Z,83.50
2023-04-08T17:50:19.192Z,84.00
2023-04-08T17:52:48.860Z,82.20
2023-04-08T17:55:15.854Z,83.70
2023-04-08T17:57:42.578Z,83.70
2023-04-08T18:00:09.537Z,78.90
2023-04-08T18:02:37.385Z,77.90
2023-04-08T18:05:04.547Z,77.70
2023-04-08T18:07:31.382Z,76.70
2023-04-08T18:09:58.257Z,82.80
2023-04-08T18:12:26.981Z,83.50
2023-04-08T18:14:53.702Z,81.10
2023-04-08T18:17:20.743Z,81.70
2023-04-08T18:19:47.498Z,82.40
2023-04-08T18:22:14.178Z,83.20
2023-04-08T18:24:40.945Z,83.60
2023-04-08T18:27:08.479Z,84.30
2023-04-08T18:29:35.527Z,85.10
2023-04-08T18:32:02.489Z,85.10
2023-04-08T18:34:29.168Z,86.20
2023-04-08T18:36:56.322Z,86.20
2023-04-08T18:39:23.142Z,86.60
2023-04-08T18:41:50.009Z,86.60
2023-04-08T18:44:17.091Z,87.10
2023-04-08T18:46:45.838Z,88.20
2023-04-08T18:49:12.719Z,88.40
2023-04-08T18:51:42.082Z,88.30
2023-04-08T18:54:11.082Z,88.70
2023-04-08T18:56:37.947Z,88.90
2023-04-08T18:59:05.691Z,90.00
2023-04-08T19:01:33.439Z,90.30
2023-04-08T19:04:00.309Z,90.40
2023-04-08T19:06:28.597Z,90.40
2023-04-08T19:08:56.056Z,90.40
2023-04-08T19:11:26.555Z,90.40
2023-04-08T19:13:53.287Z,90.60
2023-04-08T19:16:20.231Z,90.60
2023-04-08T19:18:47.065Z,90.70
2023-04-08T19:21:13.922Z,90.50
2023-04-08T19:23:41.597Z,90.70
2023-04-08T19:26:08.450Z,90.80
2023-04-08T19:28:35.199Z,90.90
2023-04-08T19:31:02.352Z,91.00
2023-04-08T19:33:29.233Z,90.90
2023-04-08T19:35:56.208Z,91.10
2023-04-08T19:38:23.657Z,90.80
2023-04-08T19:40:50.685Z,90.90
2023-04-08T19:43:20.674Z,90.90
2023-04-08T19:45:47.554Z,90.90
2023-04-08T19:48:14.289Z,91.10
2023-04-08T19:50:41.015Z,90.90
2023-04-08T19:53:07.872Z,90.90
2023-04-08T19:55:37.426Z,91.20
2023-04-08T19:58:04.424Z,91.00
2023-04-08T20:00:31.524Z,91.30
2023-04-08T20:02:58.659Z,91.10
2023-04-08T20:05:25.597Z,91.00
2023-04-08T20:07:52.441Z,91.00
2023-04-08T20:10:20.571Z,90.90
2023-04-08T20:12:47.289Z,90.80
2023-04-08T20:15:24.216Z,90.80
2023-04-08T20:17:52.733Z,91.10
2023-04-08T20:20:20.077Z,90.80
2023-04-08T20:22:47.091Z,90.80
2023-04-08T20:25:14.045Z,90.70
2023-04-08T20:27:41.446Z,90.40
2023-04-08T20:30:08.522Z,90.40
2023-04-08T20:32:36.275Z,90.10
2023-04-08T20:35:03.664Z,90.10
2023-04-08T20:37:30.732Z,90.00
2023-04-08T20:39:57.404Z,90.10
2023-04-08T20:42:24.257Z,90.30
2023-04-08T20:44:51.257Z,89.60
2023-04-08T20:47:17.989Z,89.30
2023-04-08T20:49:44.848Z,89.40
2023-04-08T20:52:11.655Z,89.30
2023-04-08T20:54:38.362Z,89.30
2023-04-08T20:57:05.526Z,88.60
2023-04-08T20:59:33.173Z,88.00
2023-04-08T21:01:59.961Z,88.20
2023-04-08T21:04:26.710Z,88.00
2023-04-08T21:06:53.562Z,87.90
2023-04-08T21:09:20.477Z,87.80
2023-04-08T21:11:47.244Z,87.80
2023-04-08T21:14:14.101Z,87.80
2023-04-08T21:16:40.841Z,87.70
2023-04-08T21:19:07.584Z,87.80
2023-04-08T21:21:34.303Z,87.80
2023-04-08T21:24:00.998Z,87.80
2023-04-08T21:26:27.867Z,87.70
2023-04-08T21:28:54.788Z,88.20
2023-04-08T21:31:21.658Z,88.60
2023-04-08T21:33:48.430Z,88.50
2023-04-08T21:36:15.494Z,88.20
2023-04-08T21:38:42.320Z,88.50
2023-04-08T21:41:09.193Z,88.80
2023-04-08T21:43:35.963Z,88.40
2023-04-08T21:46:03.221Z,89.20
2023-04-08T21:48:30.467Z,89.90
2023-04-08T21:50:57.200Z,89.20
2023-04-08T21:53:23.940Z,89.30
2023-04-08T21:55:50.755Z,89.80
2023-04-08T21:58:18.024Z,90.30
2023-04-08T22:00:44.961Z,89.50
2023-04-08T22:03:11.922Z,90.10
2023-04-08T22:05:38.878Z,90.30
2023-04-08T22:08:05.855Z,90.00
2023-04-08T22:10:32.800Z,90.00
2023-04-08T22:12:59.682Z,90.60
2023-04-08T22:15:26.604Z,90.40
2023-04-08T22:17:53.542Z,90.20
2023-04-08T22:20:20.502Z,90.40
2023-04-08T22:22:47.478Z,90.80
2023-04-08T22:25:14.337Z,90.60
2023-04-08T22:27:41.380Z,90.50
2023-04-08T22:30:08.498Z,90.60
2023-04-08T22:32:35.536Z,90.60
2023-04-08T22:35:02.333Z,90.20
2023-04-08T22:37:29.129Z,90.00
2023-04-08T22:39:56.143Z,90.00
2023-04-08T22:42:23.030Z,90.10
2023-04-08T22:44:49.897Z,90.00
2023-04-08T22:47:18.286Z,90.30
2023-04-08T22:49:45.045Z,90.70
2023-04-08T22:52:11.924Z,90.40
2023-04-08T22:54:38.805Z,90.30
2023-04-08T22:57:05.608Z,90.30
2023-04-08T22:59:32.311Z,90.30
2023-04-08T23:01:59.285Z,90.30
2023-04-08T23:04:26.303Z,90.00
2023-04-08T23:06:53.123Z,89.70
2023-04-08T23:09:23.156Z,90.00
2023-04-08T23:11:50.437Z,89.70
2023-04-08T23:14:17.269Z,90.30
2023-04-08T23:16:44.137Z,90.00
2023-04-08T23:19:11.566Z,90.10
2023-04-08T23:21:38.340Z,90.00
2023-04-08T23:24:05.463Z,89.80
2023-04-08T23:26:32.264Z,90.10
2023-04-08T23:28:59.308Z,90.30
2023-04-08T23:31:26.307Z,90.60
2023-04-08T23:33:53.173Z,90.70
2023-04-08T23:36:19.912Z,90.70
2023-04-08T23:38:46.849Z,90.70
2023-04-08T23:41:13.704Z,90.70
2023-04-08T23:43:40.510Z,90.50
2023-04-08T23:46:07.423Z,90.80
2023-04-08T23:48:34.289Z,90.80
2023-04-08T23:51:01.232Z,91.10
2023-04-08T23:53:28.070Z,91.00
2023-04-08T23:55:54.935Z,91.10
2023-04-08T23:58:21.839Z,91.10
